Time;durP1;ratioP1;P1;durP2;ratioP2;P2;SDS_P1;SDS_P2;PMS_P1;PMS_P2;Temp;Humidity;BMP_temperature;BMP_pressure;BME280_temperature;BME280_humidity;BME280_pressure;Samples;Min_cycle;Max_cycle;Signal;HPM_P1;HPM_P2
2023/02/05 00:01:48;;;;;;;12.20;7.87;;;;;;;-145.18;100.00;60484.78;5053009;28;20056;-71
2023/02/05 00:04:13;;;;;;;14.07;8.27;;;;;;;-145.18;100.00;60484.78;5051320;28;20698;-72
2023/02/05 00:06:38;;;;;;;15.27;8.30;;;;;;;-145.18;100.00;60484.78;5034012;28;20026;-72
2023/02/05 00:09:04;;;;;;;15.07;8.47;;;;;;;-145.18;100.00;60484.78;5039632;28;20060;-72
2023/02/05 00:11:29;;;;;;;14.93;7.90;;;;;;;-145.18;100.00;60484.78;5046084;28;20021;-72
2023/02/05 00:13:54;;;;;;;13.40;7.87;;;;;;;-145.18;100.00;60484.78;5050420;28;20653;-72
2023/02/05 00:16:21;;;;;;;12.87;8.30;;;;;;;-145.18;100.00;60484.78;5051938;28;20065;-72
2023/02/05 00:18:47;;;;;;;13.20;8.17;;;;;;;-145.18;100.00;60484.78;5051736;28;20082;-72
2023/02/05 00:21:13;;;;;;;13.83;8.10;;;;;;;-145.18;100.00;60484.78;5051758;28;20392;-72
2023/02/05 00:23:39;;;;;;;16.40;8.57;;;;;;;-145.18;100.00;60484.78;5048690;28;20459;-72
2023/02/05 00:26:06;;;;;;;15.43;9.20;;;;;;;-145.18;100.00;60484.78;5047213;28;20473;-72
2023/02/05 00:28:33;;;;;;;16.33;10.97;;;;;;;-145.18;100.00;60484.78;5049559;28;20469;-72
2023/02/05 00:30:59;;;;;;;15.60;10.43;;;;;;;-145.18;100.00;60484.78;5045531;28;20035;-72
2023/02/05 00:33:25;;;;;;;14.17;8.47;;;;;;;-145.18;100.00;60484.78;5046612;28;20108;-71
2023/02/05 00:35:50;;;;;;;14.73;7.70;;;;;;;-145.18;100.00;60484.78;5038105;28;20547;-72
2023/02/05 00:38:16;;;;;;;13.17;8.70;;;;;;;-145.18;100.00;60484.78;5044159;28;20029;-72
2023/02/05 00:40:42;;;;;;;15.27;8.30;;;;;;;-145.18;100.00;60484.78;5051028;28;20028;-72
2023/02/05 00:43:08;;;;;;;15.63;8.03;;;;;;;-145.18;100.00;60484.78;5044634;28;20033;-72
2023/02/05 00:45:34;;;;;;;14.20;8.20;;;;;;;-145.18;100.00;60484.78;5041378;28;20120;-72
2023/02/05 00:48:05;;;;;;;10.70;7.27;;;;;;;-145.18;100.00;60484.78;5047662;28;20032;-72
2023/02/05 00:50:32;;;;;;;13.52;7.70;;;;;;;-145.18;100.00;60484.78;5044805;28;20029;-72
2023/02/05 00:52:57;;;;;;;9.53;5.03;;;;;;;-145.18;100.00;60484.78;5037941;28;20104;-72
2023/02/05 00:55:23;;;;;;;15.57;10.00;;;;;;;-145.18;100.00;60484.78;5040078;28;20112;-71
2023/02/05 00:57:48;;;;;;;7.47;4.37;;;;;;;-145.18;100.00;60484.78;5035872;28;20521;-72
2023/02/05 01:00:14;;;;;;;10.50;5.13;;;;;;;-145.18;100.00;60484.78;5030939;28;20017;-72
2023/02/05 01:02:40;;;;;;;8.77;3.83;;;;;;;-145.18;100.00;60484.78;5038874;28;20040;-71
2023/02/05 01:05:06;;;;;;;10.17;6.00;;;;;;;-145.18;100.00;60484.78;5035214;28;20022;-72
2023/02/05 01:07:31;;;;;;;8.77;4.90;;;;;;;-145.18;100.00;60484.78;5038163;28;20024;-72
2023/02/05 01:09:57;;;;;;;8.33;3.97;;;;;;;-145.18;100.00;60484.78;5042709;28;20029;-72
2023/02/05 01:12:22;;;;;;;13.70;7.53;;;;;;;-145.18;100.00;60484.78;5047278;28;20067;-72
2023/02/05 01:14:48;;;;;;;12.13;6.93;;;;;;;-145.18;100.00;60484.78;5043872;28;20033;-72
2023/02/05 01:17:13;;;;;;;9.63;4.23;;;;;;;-145.18;100.00;60484.78;5049629;28;20423;-72
2023/02/05 01:19:38;;;;;;;14.27;8.47;;;;;;;-145.18;100.00;60484.78;5049305;28;20456;-72
2023/02/05 01:22:04;;;;;;;13.97;7.97;;;;;;;-145.18;100.00;60484.78;5047041;28;20029;-72
2023/02/05 01:24:29;;;;;;;13.63;10.00;;;;;;;-145.18;100.00;60484.78;5030861;28;20017;-72
2023/02/05 01:26:57;;;;;;;14.37;8.20;;;;;;;-145.18;100.00;60484.78;5041007;28;20035;-72
2023/02/05 01:29:23;;;;;;;15.40;8.73;;;;;;;-145.18;100.00;60484.78;5043555;28;20508;-72
2023/02/05 01:31:49;;;;;;;12.00;7.77;;;;;;;-145.18;100.00;60484.78;5030774;28;20029;-72
2023/02/05 01:34:14;;;;;;;14.53;8.03;;;;;;;-145.18;100.00;60484.78;5030766;28;20488;-72
2023/02/05 01:36:40;;;;;;;10.90;6.30;;;;;;;-145.18;100.00;60484.78;5044927;28;20496;-72
2023/02/05 01:39:05;;;;;;;11.87;6.67;;;;;;;-145.18;100.00;60484.78;5043618;28;20079;-72
2023/02/05 01:41:30;;;;;;;8.03;4.77;;;;;;;-145.18;100.00;60484.78;5038194;28;20410;-72
2023/02/05 01:44:11;;;;;;;14.87;6.87;;;;;;;-145.18;100.00;60484.78;5034882;28;20128;-72
2023/02/05 01:46:39;;;;;;;13.07;7.03;;;;;;;-145.18;100.00;60484.78;5030555;28;20021;-72
2023/02/05 01:49:08;;;;;;;12.03;6.70;;;;;;;-145.18;100.00;60484.78;5046694;28;20120;-72
2023/02/05 01:51:36;;;;;;;13.83;7.10;;;;;;;-145.18;100.00;60484.78;5047425;28;20600;-72
2023/02/05 01:54:02;;;;;;;15.50;7.57;;;;;;;-145.18;100.00;60484.78;5055246;28;20039;-72
2023/02/05 01:56:41;;;;;;;11.27;6.33;;;;;;;-145.18;100.00;60484.78;5054903;28;20029;-72
2023/02/05 01:59:15;;;;;;;13.83;7.63;;;;;;;-145.18;100.00;60484.78;5053623;28;20085;-72
2023/02/05 02:01:43;;;;;;;12.93;7.33;;;;;;;-145.18;100.00;60484.78;5052860;22;20037;-67
2023/02/05 02:04:11;;;;;;;12.10;6.87;;;;;;;-145.18;100.00;60484.78;5058949;28;20036;-67
2023/02/05 02:06:38;;;;;;;14.53;7.50;;;;;;;-145.18;100.00;60484.78;5064834;28;20070;-68
2023/02/05 02:09:05;;;;;;;12.47;6.63;;;;;;;-145.18;100.00;60484.78;5058165;28;20025;-68
2023/02/05 02:11:35;;;;;;;11.10;7.20;;;;;;;-145.18;100.00;60484.78;5071039;28;20108;-66
2023/02/05 02:14:05;;;;;;;11.17;5.43;;;;;;;-145.18;100.00;60484.78;5072879;28;20107;-65
2023/02/05 02:16:33;;;;;;;13.90;7.50;;;;;;;-145.18;100.00;60484.78;5074499;28;20028;-66
2023/02/05 02:18:59;;;;;;;16.10;8.07;;;;;;;-145.18;100.00;60484.78;5073999;28;20024;-66
2023/02/05 02:21:37;;;;;;;12.73;8.07;;;;;;;-145.18;100.00;60484.78;5074640;28;20464;-68
2023/02/05 02:24:11;;;;;;;18.20;8.57;;;;;;;-145.18;100.00;60484.78;5074443;28;20181;-66
2023/02/05 02:27:08;;;;;;;13.70;8.00;;;;;;;-145.18;100.00;60484.78;5071858;28;20029;-65
2023/02/05 02:29:54;;;;;;;11.57;7.77;;;;;;;-145.18;100.00;60484.78;4982374;28;20034;-65
2023/02/05 02:32:26;;;;;;;13.70;7.97;;;;;;;-145.18;100.00;60484.78;5056646;28;20408;-66
2023/02/05 02:35:03;;;;;;;13.53;8.00;;;;;;;-145.18;100.00;60484.78;5065122;28;20028;-65
2023/02/05 02:37:36;;;;;;;15.90;8.13;;;;;;;-145.18;100.00;60484.78;5069929;28;20028;-66
2023/02/05 02:40:20;;;;;;;13.20;7.60;;;;;;;-145.18;100.00;60484.78;5073980;28;20035;-65
2023/02/05 02:42:53;;;;;;;12.23;7.50;;;;;;;-145.18;100.00;60484.78;5073392;28;20505;-66
2023/02/05 02:45:21;;;;;;;13.77;8.60;;;;;;;-145.18;100.00;60484.78;5072109;28;20036;-66
2023/02/05 02:47:52;;;;;;;16.13;8.60;;;;;;;-145.18;100.00;60484.78;5072984;28;20033;-67
2023/02/05 02:50:25;;;;;;;14.13;9.05;;;;;;;-145.18;100.00;60484.78;5073510;28;20498;-67
2023/02/05 02:52:52;;;;;;;13.93;7.60;;;;;;;-145.18;100.00;60484.78;5070438;28;20025;-66
2023/02/05 02:55:20;;;;;;;11.77;6.27;;;;;;;-145.18;100.00;60484.78;5073366;28;20052;-67
2023/02/05 02:57:47;;;;;;;11.20;6.17;;;;;;;-145.18;100.00;60484.78;5071178;28;20025;-67
2023/02/05 03:00:23;;;;;;;13.13;6.43;;;;;;;-145.18;100.00;60484.78;5072198;28;20024;-67
2023/02/05 03:02:53;;;;;;;10.30;5.67;;;;;;;-145.18;100.00;60484.78;5060385;28;20066;-66
2023/02/05 03:05:21;;;;;;;13.57;6.67;;;;;;;-145.18;100.00;60484.78;5073105;28;20116;-67
2023/02/05 03:07:55;;;;;;;9.50;4.63;;;;;;;-145.18;100.00;60484.78;5073651;28;20352;-67
2023/02/05 03:10:32;;;;;;;11.50;7.43;;;;;;;-145.18;100.00;60484.78;5062758;28;20308;-67
2023/02/05 03:12:57;;;;;;;12.37;6.83;;;;;;;-145.18;100.00;60484.78;5057969;28;20036;-67
2023/02/05 03:15:23;;;;;;;11.43;6.53;;;;;;;-145.18;100.00;60484.78;5073167;28;20055;-67
2023/02/05 03:17:52;;;;;;;12.47;7.23;;;;;;;-145.18;100.00;60484.78;5073434;28;20036;-67
2023/02/05 03:20:32;;;;;;;13.57;8.60;;;;;;;-145.18;100.00;60484.78;5073146;28;20118;-67
2023/02/05 03:22:57;;;;;;;12.43;7.47;;;;;;;-145.18;100.00;60484.78;5072894;28;20154;-66
2023/02/05 03:25:26;;;;;;;12.87;7.77;;;;;;;-145.18;100.00;60484.78;5072785;28;20026;-66
2023/02/05 03:27:53;;;;;;;15.00;8.13;;;;;;;-145.18;100.00;60484.78;5072281;28;20029;-67
2023/02/05 03:30:19;;;;;;;12.87;7.43;;;;;;;-145.18;100.00;60484.78;5072974;28;20471;-67
2023/02/05 03:32:48;;;;;;;12.93;7.57;;;;;;;-145.18;100.00;60484.78;5072838;28;20027;-67
2023/02/05 03:35:22;;;;;;;13.23;7.77;;;;;;;-145.18;100.00;60484.78;5073237;28;20407;-60
2023/02/05 03:37:47;;;;;;;10.83;5.83;;;;;;;-145.18;100.00;60484.78;5073018;28;20035;-62
2023/02/05 03:40:38;;;;;;;12.53;6.83;;;;;;;-145.18;100.00;60484.78;5072636;28;20345;-61
2023/02/05 03:43:09;;;;;;;12.33;5.23;;;;;;;-145.18;100.00;60484.78;5071125;28;20032;-60
2023/02/05 03:45:55;;;;;;;11.20;6.15;;;;;;;-145.18;100.00;60484.78;5072207;28;20028;-61
2023/02/05 03:48:35;;;;;;;11.03;6.90;;;;;;;-145.18;100.00;60484.78;5053848;28;20488;-61
2023/02/05 03:51:25;;;;;;;12.00;7.30;;;;;;;-145.18;100.00;60484.78;5072232;28;20029;-60
2023/02/05 03:54:08;;;;;;;11.30;6.60;;;;;;;-145.18;100.00;60484.78;5072576;28;20113;-61
2023/02/05 03:56:53;;;;;;;11.40;7.57;;;;;;;-145.18;100.00;60484.78;5072247;28;20558;-61
2023/02/05 03:59:19;;;;;;;12.73;7.00;;;;;;;-145.18;100.00;60484.78;5071610;28;20025;-61
2023/02/05 04:01:45;;;;;;;15.33;8.43;;;;;;;-145.18;100.00;60484.78;5069001;28;20029;-61
2023/02/05 04:04:11;;;;;;;12.73;6.33;;;;;;;-145.18;100.00;60484.78;5068179;28;20040;-60
2023/02/05 04:06:37;;;;;;;12.93;7.10;;;;;;;-145.18;100.00;60484.78;5071850;28;20025;-61
2023/02/05 04:09:03;;;;;;;14.13;6.23;;;;;;;-145.18;100.00;60484.78;5071763;28;20020;-60
2023/02/05 04:11:28;;;;;;;10.20;5.87;;;;;;;-145.18;100.00;60484.78;5067724;28;20387;-61
2023/02/05 04:13:54;;;;;;;11.10;6.07;;;;;;;-145.18;100.00;60484.78;5069911;28;20035;-61
2023/02/05 04:16:19;;;;;;;12.40;6.17;;;;;;;-145.18;100.00;60484.78;5072215;28;20020;-62
2023/02/05 04:18:45;;;;;;;14.53;6.67;;;;;;;-145.18;100.00;60484.78;5072069;28;20119;-62
2023/02/05 04:21:10;;;;;;;13.90;7.77;;;;;;;-145.18;100.00;60484.78;5067210;28;20012;-62
2023/02/05 04:23:35;;;;;;;13.33;7.63;;;;;;;-145.18;100.00;60484.78;5068345;28;20384;-61
2023/02/05 04:26:01;;;;;;;13.30;8.67;;;;;;;-145.18;100.00;60484.78;5068328;28;20095;-61
2023/02/05 04:28:26;;;;;;;14.47;8.57;;;;;;;-145.18;100.00;60484.78;5070634;28;20025;-62
2023/02/05 04:30:52;;;;;;;12.30;7.97;;;;;;;-145.18;100.00;60484.78;5071310;28;20020;-62
2023/02/05 04:33:17;;;;;;;16.30;8.67;;;;;;;-145.18;100.00;60484.78;5071326;28;20032;-62
2023/02/05 04:35:42;;;;;;;14.07;8.50;;;;;;;-145.18;100.00;60484.78;5071741;28;20387;-63
2023/02/05 04:38:08;;;;;;;14.23;8.37;;;;;;;-145.18;100.00;60484.78;5071552;28;20028;-62
2023/02/05 04:40:33;;;;;;;13.07;7.97;;;;;;;-145.18;100.00;60484.78;5071182;28;20020;-62
2023/02/05 04:42:58;;;;;;;12.70;7.10;;;;;;;-145.18;100.00;60484.78;5066866;28;20032;-62
2023/02/05 04:45:29;;;;;;;13.07;7.87;;;;;;;-145.18;100.00;60484.78;5071732;28;20024;-62
2023/02/05 04:47:55;;;;;;;12.57;7.83;;;;;;;-145.18;100.00;60484.78;5071830;28;20115;-62
2023/02/05 04:50:21;;;;;;;12.33;6.90;;;;;;;-145.18;100.00;60484.78;5071366;28;20075;-61
2023/02/05 04:52:46;;;;;;;12.73;7.13;;;;;;;-145.18;100.00;60484.78;5071124;28;20403;-63
2023/02/05 04:55:11;;;;;;;12.47;7.77;;;;;;;-145.18;100.00;60484.78;5070435;28;20104;-61
2023/02/05 04:57:37;;;;;;;13.90;8.13;;;;;;;-145.18;100.00;60484.78;5070807;28;20017;-62
2023/02/05 05:00:03;;;;;;;14.67;8.37;;;;;;;-145.18;100.00;60484.78;5071690;28;20028;-62
2023/02/05 05:02:28;;;;;;;12.63;7.47;;;;;;;-145.18;100.00;60484.78;5071326;28;20036;-62
2023/02/05 05:04:54;;;;;;;13.40;8.00;;;;;;;-145.18;100.00;60484.78;5070785;28;20093;-61
2023/02/05 05:07:19;;;;;;;13.20;7.40;;;;;;;-145.18;100.00;60484.78;5071677;28;20031;-62
2023/02/05 05:09:44;;;;;;;12.87;7.97;;;;;;;-145.18;100.00;60484.78;5071241;28;20032;-62
2023/02/05 05:12:10;;;;;;;13.53;7.97;;;;;;;-145.18;100.00;60484.78;5071411;28;20024;-63
2023/02/05 05:14:36;;;;;;;16.50;8.73;;;;;;;-145.18;100.00;60484.78;5069954;28;20113;-62
2023/02/05 05:17:02;;;;;;;14.40;8.70;;;;;;;-145.18;100.00;60484.78;5071099;28;20031;-59
2023/02/05 05:19:27;;;;;;;13.03;8.90;;;;;;;-145.18;100.00;60484.78;5069208;28;20028;-61
2023/02/05 05:21:52;;;;;;;14.27;8.73;;;;;;;-145.18;100.00;60484.78;5070674;28;20044;-60
2023/02/05 05:24:18;;;;;;;15.63;8.77;;;;;;;-145.18;100.00;60484.78;5072381;28;20121;-59
2023/02/05 05:26:43;;;;;;;15.60;9.20;;;;;;;-145.18;100.00;60484.78;5075073;28;20074;-59
2023/02/05 05:29:13;;;;;;;13.77;8.27;;;;;;;-145.18;100.00;60484.78;5074029;28;20044;-59
2023/02/05 05:31:39;;;;;;;13.43;8.90;;;;;;;-145.18;100.00;60484.78;5075358;28;20431;-59
2023/02/05 05:34:04;;;;;;;13.10;6.97;;;;;;;-145.18;100.00;60484.78;5075024;28;20047;-59
2023/02/05 05:36:30;;;;;;;13.03;7.80;;;;;;;-145.18;100.00;60484.78;5075089;28;20029;-59
2023/02/05 05:43:45;;;;;;;12.60;8.23;;;;;;;-145.18;100.00;60484.78;5074700;28;20024;-59
2023/02/05 05:44:24;;;;;;;16.17;9.20;;;;;;;-145.18;100.00;60484.78;5073881;28;20537;-59
2023/02/05 05:46:50;;;;;;;13.20;7.20;;;;;;;-145.18;100.00;60484.78;5074517;28;20037;-59
2023/02/05 05:49:15;;;;;;;14.27;7.97;;;;;;;-145.18;100.00;60484.78;5074438;28;20107;-61
2023/02/05 05:51:40;;;;;;;16.23;7.97;;;;;;;-145.18;100.00;60484.78;5074784;28;20028;-62
2023/02/05 05:54:06;;;;;;;16.67;7.57;;;;;;;-145.18;100.00;60484.78;5074547;28;20089;-62
2023/02/05 05:56:31;;;;;;;15.60;9.10;;;;;;;-145.18;100.00;60484.78;5072658;28;20100;-62
2023/02/05 05:58:57;;;;;;;16.20;9.93;;;;;;;-145.18;100.00;60484.78;5073671;28;20029;-62
2023/02/05 06:01:22;;;;;;;17.77;10.43;;;;;;;-145.18;100.00;60484.78;5072482;28;20402;-62
2023/02/05 06:03:48;;;;;;;16.93;9.73;;;;;;;-145.18;100.00;60484.78;5074189;28;20038;-62
2023/02/05 06:06:14;;;;;;;17.13;9.50;;;;;;;-145.18;100.00;60484.78;5065945;28;20029;-62
2023/02/05 06:08:39;;;;;;;17.60;10.30;;;;;;;-145.18;100.00;60484.78;5057490;28;20426;-62
2023/02/05 06:11:05;;;;;;;18.93;10.17;;;;;;;-145.18;100.00;60484.78;5071258;28;20040;-62
2023/02/05 06:13:31;;;;;;;20.13;11.00;;;;;;;-145.18;100.00;60484.78;5069463;28;20387;-62
2023/02/05 06:15:56;;;;;;;17.53;9.90;;;;;;;-145.18;100.00;60484.78;5073851;28;20028;-65
2023/02/05 06:18:21;;;;;;;19.07;10.67;;;;;;;-145.18;100.00;60484.78;5073828;28;20027;-62
2023/02/05 06:20:47;;;;;;;17.67;10.07;;;;;;;-145.18;100.00;60484.78;5074240;28;20016;-62
2023/02/05 06:23:12;;;;;;;18.53;10.93;;;;;;;-145.18;100.00;60484.78;5072890;28;20103;-62
2023/02/05 06:25:38;;;;;;;18.20;9.90;;;;;;;-145.18;100.00;60484.78;5071027;28;20021;-62
2023/02/05 06:28:04;;;;;;;17.30;9.83;;;;;;;-145.18;100.00;60484.78;5074183;28;20035;-62
2023/02/05 06:30:29;;;;;;;17.80;10.30;;;;;;;-145.18;100.00;60484.78;5071104;28;20054;-61
2023/02/05 06:32:55;;;;;;;19.07;10.50;;;;;;;-145.18;100.00;60484.78;5070049;28;20539;-63
2023/02/05 06:35:20;;;;;;;20.27;10.73;;;;;;;-145.18;100.00;60484.78;5072903;28;20017;-62
2023/02/05 06:37:46;;;;;;;20.67;11.67;;;;;;;-145.18;100.00;60484.78;5073644;28;20028;-62
2023/02/05 06:40:11;;;;;;;20.13;11.37;;;;;;;-145.18;100.00;60484.78;5068557;28;20499;-62
2023/02/05 06:42:37;;;;;;;25.60;12.90;;;;;;;-145.18;100.00;60484.78;5072527;28;20032;-63
2023/02/05 06:45:03;;;;;;;22.47;12.13;;;;;;;-145.18;100.00;60484.78;5069593;28;20028;-62
2023/02/05 06:47:29;;;;;;;21.60;11.93;;;;;;;-145.18;100.00;60484.78;5071645;28;20501;-63
2023/02/05 06:49:55;;;;;;;21.37;12.20;;;;;;;-145.18;100.00;60484.78;5073174;28;20031;-63
2023/02/05 06:52:20;;;;;;;19.47;12.00;;;;;;;-145.18;100.00;60484.78;5073155;28;20033;-64
2023/02/05 06:54:45;;;;;;;20.13;10.93;;;;;;;-145.18;100.00;60484.78;5073588;28;20051;-63
2023/02/05 06:57:11;;;;;;;19.40;11.50;;;;;;;-145.18;100.00;60484.78;5073258;28;20032;-64
2023/02/05 06:59:37;;;;;;;19.73;11.37;;;;;;;-145.18;100.00;60484.78;5072627;28;20020;-63
2023/02/05 07:02:02;;;;;;;18.90;11.07;;;;;;;-145.18;100.00;60484.78;5072612;28;20025;-63
2023/02/05 07:04:29;;;;;;;19.33;11.30;;;;;;;-145.18;100.00;60484.78;5073274;28;20058;-62
2023/02/05 07:06:56;;;;;;;22.10;11.57;;;;;;;-145.18;100.00;60484.78;5073517;28;20451;-64
2023/02/05 07:09:22;;;;;;;21.30;12.07;;;;;;;-145.18;100.00;60484.78;5073124;28;20039;-63
2023/02/05 07:11:47;;;;;;;21.17;12.33;;;;;;;-145.18;100.00;60484.78;5055842;28;20494;-63
2023/02/05 07:14:13;;;;;;;19.80;11.37;;;;;;;-145.18;100.00;60484.78;5072402;28;20016;-63
2023/02/05 07:16:38;;;;;;;20.73;12.10;;;;;;;-145.18;100.00;60484.78;5071564;28;20056;-63
2023/02/05 07:19:04;;;;;;;21.97;10.80;;;;;;;-145.18;100.00;60484.78;5070356;28;20111;-63
2023/02/05 07:21:29;;;;;;;20.17;11.90;;;;;;;-145.18;100.00;60484.78;5071104;28;20016;-64
2023/02/05 07:23:55;;;;;;;21.37;12.27;;;;;;;-145.18;100.00;60484.78;5072904;28;20456;-63
2023/02/05 07:26:20;;;;;;;23.47;11.93;;;;;;;-145.18;100.00;60484.78;5073013;28;20465;-64
2023/02/05 07:28:45;;;;;;;22.13;12.97;;;;;;;-145.18;100.00;60484.78;5071687;28;20415;-64
2023/02/05 07:31:17;;;;;;;20.93;12.37;;;;;;;-145.18;100.00;60484.78;5072933;28;20055;-61
2023/02/05 07:33:44;;;;;;;24.83;13.52;;;;;;;-145.18;100.00;60484.78;5072878;28;20104;-62
2023/02/05 07:36:12;;;;;;;25.37;14.50;;;;;;;-145.18;100.00;60484.78;5072993;28;20078;-62
2023/02/05 07:38:37;;;;;;;27.63;14.17;;;;;;;-145.18;100.00;60484.78;5072695;28;20028;-62
2023/02/05 07:41:04;;;;;;;26.60;13.83;;;;;;;-145.18;100.00;60484.78;5071976;28;20032;-62
2023/02/05 07:43:31;;;;;;;24.40;13.53;;;;;;;-145.18;100.00;60484.78;5071711;28;20082;-62
2023/02/05 07:45:58;;;;;;;25.17;13.93;;;;;;;-145.18;100.00;60484.78;5072543;28;20032;-62
2023/02/05 07:48:23;;;;;;;26.33;13.87;;;;;;;-145.18;100.00;60484.78;5071676;28;20042;-62
2023/02/05 07:50:49;;;;;;;22.97;13.73;;;;;;;-145.18;100.00;60484.78;5071721;28;20456;-62
2023/02/05 07:53:14;;;;;;;25.77;13.53;;;;;;;-145.18;100.00;60484.78;5072589;28;20085;-63
2023/02/05 07:55:40;;;;;;;28.20;15.23;;;;;;;-145.18;100.00;60484.78;5072447;28;20115;-63
2023/02/05 07:58:05;;;;;;;26.20;15.27;;;;;;;-145.18;100.00;60484.78;5072259;28;20024;-63
2023/02/05 08:00:31;;;;;;;24.20;13.97;;;;;;;-145.18;100.00;60484.78;5069495;28;20035;-63
2023/02/05 08:02:56;;;;;;;25.13;14.33;;;;;;;-145.18;100.00;60484.78;5072105;28;20036;-64
2023/02/05 08:05:22;;;;;;;25.83;13.80;;;;;;;-145.18;100.00;60484.78;5064941;28;20165;-63
2023/02/05 08:07:47;;;;;;;23.60;13.33;;;;;;;-145.18;100.00;60484.78;5071740;28;20036;-62
2023/02/05 08:10:13;;;;;;;25.97;14.27;;;;;;;-145.18;100.00;60484.78;5072348;28;20418;-63
2023/02/05 08:12:41;;;;;;;23.73;13.33;;;;;;;-145.18;100.00;60484.78;5072267;28;20423;-64
2023/02/05 08:15:07;;;;;;;21.60;12.77;;;;;;;-145.18;100.00;60484.78;5067806;28;20090;-63
2023/02/05 08:17:33;;;;;;;26.13;13.70;;;;;;;-145.18;100.00;60484.78;5071922;28;20469;-63
2023/02/05 08:20:05;;;;;;;23.47;13.80;;;;;;;-145.18;100.00;60484.78;5071202;28;20115;-63
2023/02/05 08:22:32;;;;;;;23.23;13.00;;;;;;;-145.18;100.00;60484.78;5069730;28;20035;-63
2023/02/05 08:24:58;;;;;;;26.60;14.13;;;;;;;-145.18;100.00;60484.78;5068886;28;20463;-63
2023/02/05 08:27:23;;;;;;;24.13;14.80;;;;;;;-145.18;100.00;60484.78;5072211;28;20099;-64
2023/02/05 08:29:48;;;;;;;29.03;14.50;;;;;;;-145.18;100.00;60484.78;5071944;28;20024;-63
2023/02/05 08:32:14;;;;;;;28.80;14.57;;;;;;;-145.18;100.00;60484.78;5072134;28;20056;-63
2023/02/05 08:34:39;;;;;;;26.80;13.97;;;;;;;-145.18;100.00;60484.78;5070877;28;20035;-64
2023/02/05 08:37:05;;;;;;;29.57;15.10;;;;;;;-145.18;100.00;60484.78;5071733;28;20085;-63
2023/02/05 08:39:30;;;;;;;27.87;15.27;;;;;;;-145.18;100.00;60484.78;5070827;28;20139;-62
2023/02/05 08:41:56;;;;;;;27.43;14.70;;;;;;;-145.18;100.00;60484.78;5071158;28;20089;-63
2023/02/05 08:44:21;;;;;;;22.17;13.37;;;;;;;-145.18;100.00;60484.78;5071923;28;20451;-64
2023/02/05 08:46:47;;;;;;;28.83;16.40;;;;;;;-145.18;100.00;60484.78;5071002;28;20111;-64
2023/02/05 08:49:12;;;;;;;28.87;16.10;;;;;;;-145.18;100.00;60484.78;5065219;28;20491;-62
2023/02/05 08:51:38;;;;;;;25.43;14.10;;;;;;;-145.18;100.00;60484.78;5071620;28;20033;-62
2023/02/05 08:54:04;;;;;;;28.73;15.87;;;;;;;-145.18;100.00;60484.78;5071527;28;20472;-62
2023/02/05 08:56:30;;;;;;;28.40;15.23;;;;;;;-145.18;100.00;60484.78;5071108;28;20052;-63
2023/02/05 08:58:56;;;;;;;30.20;16.43;;;;;;;-145.18;100.00;60484.78;5059084;28;20060;-63
2023/02/05 09:01:21;;;;;;;30.83;16.20;;;;;;;-145.18;100.00;60484.78;5069008;28;20123;-63
2023/02/05 09:03:47;;;;;;;24.17;15.07;;;;;;;-145.18;100.00;60484.78;5071397;28;20108;-63
2023/02/05 09:06:15;;;;;;;30.73;15.23;;;;;;;-145.18;100.00;60484.78;5070629;28;20423;-63
2023/02/05 09:08:40;;;;;;;32.43;16.23;;;;;;;-145.18;100.00;60484.78;5071718;28;20440;-64
2023/02/05 09:11:07;;;;;;;32.97;17.27;;;;;;;-145.18;100.00;60484.78;5071702;28;20107;-66
2023/02/05 09:13:33;;;;;;;31.90;17.80;;;;;;;-145.18;100.00;60484.78;5071542;28;20021;-63
2023/02/05 09:15:58;;;;;;;30.90;17.30;;;;;;;-145.18;100.00;60484.78;5071235;28;20031;-63
2023/02/05 09:18:24;;;;;;;28.40;16.70;;;;;;;-145.18;100.00;60484.78;5064042;28;20465;-64
2023/02/05 09:20:50;;;;;;;31.43;16.77;;;;;;;-145.18;100.00;60484.78;5066172;28;20060;-64
2023/02/05 09:23:17;;;;;;;30.43;16.63;;;;;;;-145.18;100.00;60484.78;5070124;28;20033;-64
2023/02/05 09:25:43;;;;;;;27.97;16.17;;;;;;;-145.18;100.00;60484.78;5052761;28;20068;-63
2023/02/05 09:28:12;;;;;;;33.97;16.57;;;;;;;-145.18;100.00;60484.78;5064932;28;20120;-63
2023/02/05 09:30:39;;;;;;;31.07;15.63;;;;;;;-145.18;100.00;60484.78;5070941;28;20044;-64
2023/02/05 09:33:05;;;;;;;34.27;16.60;;;;;;;-145.18;100.00;60484.78;5069243;28;20078;-63
2023/02/05 09:35:31;;;;;;;26.17;15.40;;;;;;;-145.18;100.00;60484.78;5064042;28;20407;-64
2023/02/05 09:37:58;;;;;;;32.50;15.60;;;;;;;-145.18;100.00;60484.78;5067105;28;20020;-63
2023/02/05 09:40:28;;;;;;;28.33;14.53;;;;;;;-145.18;100.00;60484.78;5070616;28;20033;-62
2023/02/05 09:43:18;;;;;;;31.27;16.43;;;;;;;-145.18;100.00;60484.78;5066866;28;20017;-62
2023/02/05 09:45:54;;;;;;;29.13;16.53;;;;;;;-145.18;100.00;60484.78;5064328;28;20154;-63
2023/02/05 09:48:50;;;;;;;30.63;15.83;;;;;;;-145.18;100.00;60484.78;5063727;28;20040;-63
2023/02/05 09:51:20;;;;;;;29.67;15.60;;;;;;;-145.18;100.00;60484.78;5049388;28;20049;-62
2023/02/05 09:53:58;;;;;;;24.47;13.83;;;;;;;-145.18;100.00;60484.78;5060322;28;20380;-63
2023/02/05 09:56:25;;;;;;;21.83;13.93;;;;;;;-145.18;100.00;60484.78;5050944;28;20033;-62
2023/02/05 09:58:53;;;;;;;26.93;14.30;;;;;;;-145.18;100.00;60484.78;5069741;28;20044;-62
2023/02/05 10:01:39;;;;;;;20.57;12.50;;;;;;;-145.18;100.00;60484.78;5052927;28;20036;-62
2023/02/05 10:04:08;;;;;;;24.10;12.80;;;;;;;-145.18;100.00;60484.78;5054589;28;20037;-63
2023/02/05 10:06:40;;;;;;;20.30;12.60;;;;;;;-145.18;100.00;60484.78;5066947;28;20036;-62
2023/02/05 10:09:40;;;;;;;21.70;12.93;;;;;;;-145.18;100.00;60484.78;5067516;28;20060;-63
2023/02/05 10:12:26;;;;;;;20.00;11.63;;;;;;;-145.18;100.00;60484.78;5070974;28;20484;-61
2023/02/05 10:15:00;;;;;;;22.03;12.60;;;;;;;-145.18;100.00;60484.78;5065218;28;20235;-62
2023/02/05 10:17:45;;;;;;;26.47;12.47;;;;;;;-145.18;100.00;60484.78;5070198;28;20446;-62
2023/02/05 10:20:44;;;;;;;27.37;13.77;;;;;;;-145.18;100.00;60484.78;5068208;28;20111;-63
2023/02/05 10:23:31;;;;;;;35.50;17.77;;;;;;;-145.18;100.00;60484.78;5073974;28;20033;-61
2023/02/05 10:26:13;;;;;;;32.20;18.13;;;;;;;-145.18;100.00;60484.78;5072043;28;20385;-61
2023/02/05 10:28:57;;;;;;;42.77;20.87;;;;;;;-145.18;100.00;60484.78;5070082;28;20028;-62
2023/02/05 10:31:41;;;;;;;35.50;18.87;;;;;;;-145.18;100.00;60484.78;5073157;28;20039;-62
2023/02/05 10:34:12;;;;;;;39.97;20.30;;;;;;;-145.18;100.00;60484.78;5072742;28;20097;-62
2023/02/05 10:36:37;;;;;;;55.80;25.30;;;;;;;-145.18;100.00;60484.78;5054084;28;20059;-62
2023/02/05 10:39:13;;;;;;;49.07;22.60;;;;;;;-145.18;100.00;60484.78;5072626;28;20438;-62
2023/02/05 10:41:43;;;;;;;49.93;22.20;;;;;;;-145.18;100.00;60484.78;5053506;28;20074;-62
2023/02/05 10:44:36;;;;;;;42.87;19.90;;;;;;;-145.18;100.00;60484.78;5058450;28;20028;-63
2023/02/05 10:47:10;;;;;;;38.70;20.13;;;;;;;-145.18;100.00;60484.78;5066297;28;20043;-63
2023/02/05 10:49:50;;;;;;;41.63;20.70;;;;;;;-145.18;100.00;60484.78;5072072;28;20078;-63
2023/02/05 10:52:16;;;;;;;45.17;21.13;;;;;;;-145.18;100.00;60484.78;5070591;28;20593;-62
2023/02/05 10:54:42;;;;;;;45.27;22.43;;;;;;;-145.18;100.00;60484.78;5070982;28;20087;-61
2023/02/05 10:57:19;;;;;;;43.50;23.20;;;;;;;-145.18;100.00;60484.78;5055285;28;20024;-61
2023/02/05 10:59:56;;;;;;;48.30;23.53;;;;;;;-145.18;100.00;60484.78;5073239;28;20048;-62
2023/02/05 11:02:30;;;;;;;46.37;24.53;;;;;;;-145.18;100.00;60484.78;5072498;28;20052;-61
2023/02/05 11:05:00;;;;;;;50.47;25.30;;;;;;;-145.18;100.00;60484.78;5072560;28;20036;-62
2023/02/05 11:07:48;;;;;;;59.17;27.27;;;;;;;-145.18;100.00;60484.78;5072637;28;20055;-62
2023/02/05 11:10:18;;;;;;;57.70;26.13;;;;;;;-145.18;100.00;60484.78;5072306;28;20032;-63